createdAt,value
2023-03-12T00:01:23.909Z,97022.39
2023-03-12T00:03:52.140Z,97022.84
2023-03-12T00:06:20.736Z,97023.58
2023-03-12T00:08:49.252Z,97023.65
2023-03-12T00:11:22.385Z,97024.45
2023-03-12T00:13:55.037Z,97026.17
2023-03-12T00:16:22.750Z,97027.94
2023-03-12T00:18:52.639Z,97027.77
2023-03-12T00:21:20.914Z,97029.62
2023-03-12T00:23:50.009Z,97030.31
2023-03-12T00:26:17.848Z,97034.71
2023-03-12T00:28:45.669Z,97034.11
2023-03-12T00:31:17.615Z,97038.67
2023-03-12T00:33:45.163Z,97042.42
2023-03-12T00:36:16.261Z,97040.73
2023-03-12T00:38:44.665Z,97043.05
2023-03-12T00:41:12.433Z,97041.65
2023-03-12T00:43:39.684Z,97044.45
2023-03-12T00:46:06.850Z,97045.54
2023-03-12T00:48:34.381Z,97050.79
2023-03-12T00:51:01.578Z,97051.59
2023-03-12T00:53:28.969Z,97052.26
2023-03-12T00:55:56.287Z,97052.59
2023-03-12T00:58:23.370Z,97052.19
2023-03-12T01:00:50.963Z,97054.42
2023-03-12T01:03:18.293Z,97047.90
2023-03-12T01:05:45.881Z,97048.73
2023-03-12T01:08:13.066Z,97045.38
2023-03-12T01:10:43.648Z,97050.11
2023-03-12T01:13:10.928Z,97053.27
2023-03-12T01:15:38.602Z,97057.81
2023-03-12T01:18:05.761Z,97055.65
2023-03-12T01:20:33.023Z,97061.13
2023-03-12T01:23:00.132Z,97056.09
2023-03-12T01:25:27.478Z,97055.98
2023-03-12T01:27:54.631Z,97047.58
2023-03-12T01:30:21.688Z,97051.37
2023-03-12T01:32:48.870Z,97052.29
2023-03-12T01:35:17.210Z,97054.77
2023-03-12T01:37:45.786Z,97059.58
2023-03-12T01:40:26.292Z,97062.86
2023-03-12T01:42:55.188Z,97057.58
2023-03-12T01:46:04.255Z,97062.03
2023-03-12T01:48:38.769Z,97059.13
2023-03-12T01:51:08.615Z,97059.08
2023-03-12T01:53:36.142Z,97058.27
2023-03-12T01:56:03.695Z,97060.48
2023-03-12T01:58:34.540Z,97064.10
2023-03-12T02:04:00.216Z,97072.31
2023-03-12T02:06:53.558Z,97079.02
2023-03-12T02:09:22.041Z,97079.73
2023-03-12T02:11:49.694Z,97081.41
2023-03-12T02:14:17.119Z,97082.16
2023-03-12T02:16:44.945Z,97084.73
2023-03-12T02:19:34.978Z,97087.79
2023-03-12T02:22:04.367Z,97085.27
2023-03-12T02:24:41.678Z,97090.35
2023-03-12T02:27:10.420Z,97092.02
2023-03-12T02:29:39.793Z,97091.15
2023-03-12T02:32:09.053Z,97094.42
2023-03-12T02:34:36.512Z,97096.08
2023-03-12T02:37:05.780Z,97098.66
2023-03-12T02:39:32.711Z,97101.63
2023-03-12T02:42:01.097Z,97101.94
2023-03-12T02:44:31.859Z,97101.71
2023-03-12T02:47:01.235Z,97108.35
2023-03-12T02:49:31.628Z,97106.81
2023-03-12T02:51:58.844Z,97111.71
2023-03-12T02:54:27.033Z,97111.78
2023-03-12T02:56:55.347Z,97120.83
2023-03-12T02:59:26.985Z,97122.66
2023-03-12T03:02:00.190Z,97123.61
2023-03-12T03:04:29.311Z,97126.91
2023-03-12T03:06:56.572Z,97132.70
2023-03-12T03:09:25.038Z,97136.24
2023-03-12T03:11:52.312Z,97140.70
2023-03-12T03:14:19.670Z,97141.63
2023-03-12T03:16:46.687Z,97138.54
2023-03-12T03:19:13.737Z,97142.30
2023-03-12T03:21:40.964Z,97141.11
2023-03-12T03:24:08.622Z,97147.83
2023-03-12T03:26:36.098Z,97149.32
2023-03-12T03:29:03.655Z,97153.05
2023-03-12T03:31:31.659Z,97154.14
2023-03-12T03:33:58.708Z,97156.48
2023-03-12T03:36:25.924Z,97160.45
2023-03-12T03:38:53.331Z,97163.29
2023-03-12T03:41:21.331Z,97171.80
2023-03-12T03:43:48.473Z,97175.39
2023-03-12T03:46:16.590Z,97171.54
2023-03-12T03:48:43.838Z,97174.81
2023-03-12T03:51:11.803Z,97180.13
2023-03-12T03:53:39.232Z,97180.34
2023-03-12T03:56:09.575Z,97178.44
2023-03-12T03:58:37.726Z,97182.69
2023-03-12T04:01:07.663Z,97183.36
2023-03-12T04:03:35.670Z,97182.98
2023-03-12T04:06:04.963Z,97182.88
2023-03-12T04:08:35.758Z,97185.05
2023-03-12T04:11:12.223Z,97185.80
2023-03-12T04:13:39.859Z,97187.70
2023-03-12T04:16:08.500Z,97183.48
2023-03-12T04:18:39.376Z,97182.92
2023-03-12T04:21:08.614Z,97185.34
2023-03-12T04:23:36.893Z,97185.92
2023-03-12T04:26:05.110Z,97185.63
2023-03-12T04:28:34.787Z,97186.30
2023-03-12T04:31:05.099Z,97188.79
2023-03-12T04:33:36.123Z,97190.04
2023-03-12T04:36:03.225Z,97192.02
2023-03-12T04:38:30.624Z,97190.85
2023-03-12T04:41:08.586Z,97196.76
2023-03-12T04:43:36.328Z,97194.91
2023-03-12T04:46:03.796Z,97197.55
2023-03-12T04:48:31.193Z,97197.17
2023-03-12T04:50:58.489Z,97199.70
2023-03-12T04:53:26.364Z,97201.98
2023-03-12T04:55:53.786Z,97201.79
2023-03-12T04:58:22.416Z,97203.43
2023-03-12T05:00:50.367Z,97203.36
2023-03-12T05:03:18.358Z,97205.67
2023-03-12T05:05:45.507Z,97213.07
2023-03-12T05:08:13.300Z,97207.58
2023-03-12T05:10:40.901Z,97215.14
2023-03-12T05:13:16.014Z,97215.52
2023-03-12T05:15:44.052Z,97216.55
2023-03-12T05:18:12.782Z,97218.60
2023-03-12T05:20:40.292Z,97224.67
2023-03-12T05:23:08.259Z,97224.69
2023-03-12T05:25:40.827Z,97220.38
2023-03-12T05:28:09.234Z,97229.44
2023-03-12T05:30:36.692Z,97229.83
2023-03-12T05:33:03.654Z,97236.33
2023-03-12T05:35:32.069Z,97237.51
2023-03-12T05:37:59.243Z,97238.28
2023-03-12T05:40:26.101Z,97243.88
2023-03-12T05:42:53.852Z,97249.34
2023-03-12T05:45:21.123Z,97247.19
2023-03-12T05:47:48.298Z,97245.58
2023-03-12T05:50:17.336Z,97249.58
2023-03-12T05:52:44.332Z,97248.97
2023-03-12T05:55:11.701Z,97255.47
2023-03-12T05:57:38.805Z,97256.05
2023-03-12T06:00:07.468Z,97257.52
2023-03-12T06:02:34.748Z,97258.80
2023-03-12T06:05:02.601Z,97261.36
2023-03-12T06:07:30.018Z,97264.55
2023-03-12T06:09:57.643Z,97260.88
2023-03-12T06:12:25.402Z,97264.90
2023-03-12T06:14:52.436Z,97264.70
2023-03-12T06:17:20.022Z,97270.52
2023-03-12T06:19:50.976Z,97273.56
2023-03-12T06:22:18.117Z,97278.29
2023-03-12T06:24:47.688Z,97283.35
2023-03-12T06:27:16.785Z,97284.60
2023-03-12T06:29:47.433Z,97286.91
2023-03-12T06:32:15.397Z,97290.68
2023-03-12T06:34:43.425Z,97292.92
2023-03-12T06:37:11.105Z,97291.37
2023-03-12T06:39:38.700Z,97290.43
2023-03-12T06:42:06.254Z,97291.17
2023-03-12T06:44:33.510Z,97294.66
2023-03-12T06:47:00.463Z,97294.29
2023-03-12T06:49:33.107Z,97298.23
2023-03-12T06:52:00.093Z,97297.14
2023-03-12T06:54:27.107Z,97301.79
2023-03-12T06:56:54.517Z,97298.54
2023-03-12T06:59:22.235Z,97304.70
2023-03-12T07:01:50.035Z,97302.21
2023-03-12T07:04:18.131Z,97309.65
2023-03-12T07:06:45.086Z,97310.92
2023-03-12T07:09:12.095Z,97309.02
2023-03-12T07:11:39.347Z,97312.25
2023-03-12T07:14:06.767Z,97308.86
2023-03-12T07:16:33.981Z,97306.13
2023-03-12T07:19:02.533Z,97306.27
2023-03-12T07:21:30.459Z,97305.70
2023-03-12T07:23:58.190Z,97313.42
2023-03-12T07:26:26.314Z,97309.52
2023-03-12T07:28:53.326Z,97304.56
2023-03-12T07:31:20.295Z,97301.82
2023-03-12T07:33:47.681Z,97310.71
2023-03-12T07:36:15.088Z,97311.02
2023-03-12T07:38:42.361Z,97313.05
2023-03-12T07:41:09.433Z,97317.86
2023-03-12T07:43:36.509Z,97321.64
2023-03-12T07:46:03.615Z,97320.23
2023-03-12T07:48:31.695Z,97320.52
2023-03-12T07:50:58.723Z,97311.71
2023-03-12T07:53:25.880Z,97314.73
2023-03-12T07:55:53.815Z,97315.19
2023-03-12T07:58:21.026Z,97320.27
2023-03-12T08:00:48.230Z,97322.25
2023-03-12T08:03:15.969Z,97320.45
2023-03-12T08:05:43.254Z,97324.76
2023-03-12T08:08:10.711Z,97331.30
2023-03-12T08:10:38.619Z,97335.21
2023-03-12T08:13:05.931Z,97332.20
2023-03-12T08:15:33.709Z,97334.09
2023-03-12T08:18:01.791Z,97327.11
2023-03-12T08:20:29.880Z,97323.51
2023-03-12T08:22:57.098Z,97328.55
2023-03-12T08:25:25.032Z,97323.52
2023-03-12T08:27:53.336Z,97329.58
2023-03-12T08:30:21.044Z,97329.33
2023-03-12T08:32:48.198Z,97334.55
2023-03-12T08:35:15.339Z,97331.63
2023-03-12T08:37:43.570Z,97331.90
2023-03-12T08:40:13.726Z,97336.82
2023-03-12T08:42:45.704Z,97333.83
2023-03-12T08:45:13.503Z,97336.20
2023-03-12T08:47:42.051Z,97337.15
2023-03-12T08:50:11.654Z,97336.94
2023-03-12T08:52:39.341Z,97338.85
2023-03-12T08:55:07.072Z,97337.94
2023-03-12T08:57:34.091Z,97340.69
2023-03-12T09:00:01.469Z,97339.19
2023-03-12T09:02:29.133Z,97344.54
2023-03-12T09:04:56.162Z,97341.21
2023-03-12T09:07:23.118Z,97344.91
2023-03-12T09:09:50.164Z,97350.11
2023-03-12T09:12:17.343Z,97348.48
2023-03-12T09:17:32.851Z,97352.85
2023-03-12T09:20:00.906Z,97343.66
2023-03-12T09:22:30.596Z,97345.41
2023-03-12T09:24:57.869Z,97342.48
2023-03-12T09:27:25.326Z,97344.55
2023-03-12T09:30:00.237Z,97341.66
2023-03-12T09:32:29.504Z,97340.58
2023-03-12T09:34:57.105Z,97338.65
2023-03-12T09:37:24.589Z,97337.02
2023-03-12T09:39:53.842Z,97333.41
2023-03-12T09:42:33.611Z,97334.05
2023-03-12T09:45:04.910Z,97334.80
2023-03-12T09:47:48.217Z,97334.63
2023-03-12T09:50:28.025Z,97336.92
2023-03-12T09:53:13.507Z,97335.23
2023-03-12T09:55:43.836Z,97339.89
2023-03-12T09:58:16.601Z,97331.63
2023-03-12T10:00:44.875Z,97329.85
2023-03-12T10:03:43.227Z,97328.25
2023-03-12T10:06:15.916Z,97335.91
2023-03-12T10:09:11.451Z,97335.73
2023-03-12T10:12:14.300Z,97339.36
2023-03-12T10:15:23.669Z,97343.86
2023-03-12T10:18:17.242Z,97342.52
2023-03-12T10:20:58.355Z,97345.24
2023-03-12T10:24:03.462Z,97347.66
2023-03-12T10:26:40.812Z,97345.11
2023-03-12T10:29:33.200Z,97342.95
2023-03-12T10:32:16.956Z,97338.92
2023-03-12T10:34:56.833Z,97337.86
2023-03-12T10:37:42.216Z,97339.55
2023-03-12T10:40:18.719Z,97340.42
2023-03-12T10:42:47.852Z,97344.30
2023-03-12T10:45:24.662Z,97347.09
2023-03-12T10:47:57.836Z,97350.52
2023-03-12T10:50:30.981Z,97350.90
2023-03-12T10:53:24.551Z,97347.84
2023-03-12T10:56:14.252Z,97345.58
2023-03-12T10:58:45.083Z,97350.45
2023-03-12T11:01:25.626Z,97352.54
2023-03-12T11:03:54.796Z,97353.02
2023-03-12T11:06:26.670Z,97353.84
2023-03-12T11:09:17.132Z,97353.08
2023-03-12T11:11:48.057Z,97350.48
2023-03-12T11:14:22.298Z,97356.85
2023-03-12T11:16:51.350Z,97352.73
2023-03-12T11:19:35.453Z,97356.65
2023-03-12T11:22:07.503Z,97353.14
2023-03-12T11:24:35.545Z,97352.30
2023-03-12T11:27:31.845Z,97357.80
2023-03-12T11:30:01.171Z,97355.16
2023-03-12T11:32:29.735Z,97354.21
2023-03-12T11:34:57.097Z,97359.19
2023-03-12T11:37:58.193Z,97357.71
2023-03-12T11:40:28.031Z,97356.90
2023-03-12T11:43:13.099Z,97354.70
2023-03-12T11:46:06.717Z,97352.09
2023-03-12T11:49:06.326Z,97347.83
2023-03-12T11:51:52.372Z,97348.80
2023-03-12T11:54:49.522Z,97346.95
2023-03-12T11:57:29.474Z,97347.73
2023-03-12T12:00:14.630Z,97346.20
2023-03-12T12:03:15.598Z,97351.45
2023-03-12T12:06:01.386Z,97346.92
2023-03-12T12:08:43.777Z,97349.61
2023-03-12T12:11:26.187Z,97346.94
2023-03-12T12:14:14.246Z,97343.20
2023-03-12T12:17:04.142Z,97344.09
2023-03-12T12:19:52.883Z,97346.23
2023-03-12T12:22:30.488Z,97352.11
2023-03-12T12:25:26.358Z,97351.02
2023-03-12T12:28:22.288Z,97347.54
2023-03-12T12:31:09.618Z,97348.20
2023-03-12T12:34:23.872Z,97348.11
2023-03-12T12:37:17.123Z,97351.92
2023-03-12T12:40:27.358Z,97353.36
2023-03-12T12:43:07.256Z,97348.11
2023-03-12T12:45:40.406Z,97354.32
2023-03-12T12:48:15.667Z,97355.85
2023-03-12T12:50:45.128Z,97355.16
2023-03-12T12:53:22.768Z,97358.15
2023-03-12T12:56:00.428Z,97358.59
2023-03-12T12:58:50.403Z,97354.16
2023-03-12T13:01:18.956Z,97352.30
2023-03-12T13:03:48.205Z,97354.38
2023-03-12T13:06:15.777Z,97355.80
2023-03-12T13:08:43.505Z,97358.17
2023-03-12T13:11:18.670Z,97360.80
2023-03-12T13:13:49.721Z,97362.88
2023-03-12T13:16:35.031Z,97361.86
2023-03-12T13:19:26.643Z,97360.19
2023-03-12T13:22:25.648Z,97352.96
2023-03-12T13:24:59.571Z,97353.64
2023-03-12T13:27:31.314Z,97358.32
2023-03-12T13:29:59.683Z,97350.58
2023-03-12T13:32:36.406Z,97349.27
2023-03-12T13:35:21.838Z,97338.09
2023-03-12T13:37:52.230Z,97340.77
2023-03-12T13:40:51.585Z,97344.41
2023-03-12T13:43:36.352Z,97349.06
2023-03-12T13:46:43.556Z,97352.70
2023-03-12T13:49:14.439Z,97354.27
2023-03-12T13:52:18.201Z,97354.40
2023-03-12T13:54:49.926Z,97354.02
2023-03-12T13:57:46.602Z,97359.64
2023-03-12T14:00:27.081Z,97359.27
2023-03-12T14:03:13.840Z,97362.75
2023-03-12T14:05:58.139Z,97365.26
2023-03-12T14:08:56.236Z,97367.10
2023-03-12T14:11:36.199Z,97369.73
2023-03-12T14:14:45.759Z,97370.45
2023-03-12T14:17:25.332Z,97375.46
2023-03-12T14:19:59.947Z,97372.74
2023-03-12T14:22:33.233Z,97378.67
2023-03-12T14:25:14.005Z,97380.95
2023-03-12T14:27:42.284Z,97381.98
2023-03-12T14:30:13.130Z,97387.44
2023-03-12T14:32:43.010Z,97386.06
2023-03-12T14:35:30.816Z,97389.19
2023-03-12T14:38:07.146Z,97391.69
2023-03-12T14:40:34.316Z,97391.31
2023-03-12T14:43:19.353Z,97392.62
2023-03-12T14:45:46.855Z,97390.91
2023-03-12T14:48:14.284Z,97393.14
2023-03-12T14:50:42.081Z,97400.66
2023-03-12T14:53:19.863Z,97400.33
2023-03-12T14:55:46.982Z,97399.70
2023-03-12T14:58:20.837Z,97400.00
2023-03-12T15:01:00.811Z,97396.36
2023-03-12T15:03:30.289Z,97396.39
2023-03-12T15:05:59.277Z,97396.90
2023-03-12T15:08:36.968Z,97392.36
2023-03-12T15:11:04.488Z,97392.31
2023-03-12T15:13:33.128Z,97381.13
2023-03-12T15:16:00.600Z,97372.45
2023-03-12T15:18:33.667Z,97371.31
2023-03-12T15:21:03.636Z,97374.81
2023-03-12T15:23:37.436Z,97373.80
2023-03-12T15:26:29.852Z,97379.96
2023-03-12T15:28:58.711Z,97379.64
2023-03-12T15:31:26.511Z,97380.38
2023-03-12T15:34:04.760Z,97380.15
2023-03-12T15:36:35.442Z,97383.03
2023-03-12T15:39:13.387Z,97385.58
2023-03-12T15:41:49.941Z,97387.62
2023-03-12T15:44:30.218Z,97388.14
2023-03-12T15:47:08.562Z,97394.18
2023-03-12T15:49:39.783Z,97389.89
2023-03-12T15:52:22.546Z,97390.86
2023-03-12T15:55:10.509Z,97398.60
2023-03-12T15:57:57.122Z,97398.62
2023-03-12T16:00:28.710Z,97398.79
2023-03-12T16:03:00.277Z,97400.71
2023-03-12T16:05:34.838Z,97401.89
2023-03-12T16:08:34.051Z,97408.64
2023-03-12T16:11:01.719Z,97406.55
2023-03-12T16:13:32.641Z,97396.00
2023-03-12T16:16:02.211Z,97395.87
2023-03-12T16:18:30.531Z,97400.15
2023-03-12T16:20:57.523Z,97400.58
2023-03-12T16:23:25.495Z,97396.13
2023-03-12T16:25:56.905Z,97392.08
2023-03-12T16:28:25.381Z,97400.41
2023-03-12T16:30:53.686Z,97403.49
2023-03-12T16:33:24.372Z,97399.59
2023-03-12T16:35:52.517Z,97399.61
2023-03-12T16:38:20.422Z,97406.30
2023-03-12T16:40:50.310Z,97413.98
2023-03-12T16:43:21.982Z,97407.20
2023-03-12T16:45:51.058Z,97414.95
2023-03-12T16:48:21.815Z,97422.02
2023-03-12T16:50:57.987Z,97421.16
2023-03-12T16:53:26.125Z,97416.95
2023-03-12T16:56:01.605Z,97418.54
2023-03-12T16:58:31.228Z,97417.08
2023-03-12T17:00:59.213Z,97415.02
2023-03-12T17:03:38.137Z,97413.55
2023-03-12T17:06:07.417Z,97417.80
2023-03-12T17:08:36.372Z,97419.30
2023-03-12T17:11:04.825Z,97421.45
2023-03-12T17:13:31.851Z,97420.49
2023-03-12T17:15:59.993Z,97421.09
2023-03-12T17:18:28.443Z,97413.98
2023-03-12T17:20:56.569Z,97402.34
2023-03-12T17:23:25.110Z,97401.77
2023-03-12T17:25:52.508Z,97399.76
2023-03-12T17:28:19.657Z,97398.09
2023-03-12T17:30:48.019Z,97398.78
2023-03-12T17:33:18.456Z,97402.11
2023-03-12T17:35:46.333Z,97405.62
2023-03-12T17:38:15.197Z,97413.05
2023-03-12T17:40:44.506Z,97420.50
2023-03-12T17:43:13.035Z,97422.38
2023-03-12T17:45:40.204Z,97418.98
2023-03-12T17:48:07.512Z,97412.05
2023-03-12T17:50:36.094Z,97418.39
2023-03-12T17:53:04.511Z,97424.19
2023-03-12T17:55:32.367Z,97413.88
2023-03-12T17:57:59.562Z,97408.52
2023-03-12T18:00:28.278Z,97406.20
2023-03-12T18:02:56.073Z,97412.52
2023-03-12T18:05:23.416Z,97414.56
2023-03-12T18:07:51.680Z,97403.26
2023-03-12T18:10:20.236Z,97404.14
2023-03-12T18:12:58.848Z,97403.06
2023-03-12T18:15:26.270Z,97396.98
2023-03-12T18:17:56.911Z,97403.88
2023-03-12T18:20:37.536Z,97404.65
2023-03-12T18:23:05.660Z,97396.77
2023-03-12T18:25:32.677Z,97397.02
2023-03-12T18:28:00.010Z,97402.20
2023-03-12T18:30:28.665Z,97411.55
2023-03-12T18:32:55.858Z,97412.45
2023-03-12T18:35:23.077Z,97408.99
2023-03-12T18:37:52.734Z,97410.98
2023-03-12T18:40:20.054Z,97408.41
2023-03-12T18:42:47.226Z,97408.13
2023-03-12T18:45:14.694Z,97413.98
2023-03-12T18:47:45.046Z,97413.23
2023-03-12T18:50:12.949Z,97406.59
2023-03-12T18:52:40.503Z,97399.86
2023-03-12T18:55:07.844Z,97393.95
2023-03-12T18:57:34.865Z,97391.48
2023-03-12T19:00:01.942Z,97387.98
2023-03-12T19:02:29.080Z,97398.73
2023-03-12T19:04:57.129Z,97407.66
2023-03-12T19:07:24.712Z,97410.02
2023-03-12T19:09:51.748Z,97409.58
2023-03-12T19:12:19.624Z,97405.11
2023-03-12T19:14:47.881Z,97394.41
2023-03-12T19:17:14.909Z,97389.72
2023-03-12T19:19:42.148Z,97390.70
2023-03-12T19:22:09.659Z,97394.61
2023-03-12T19:24:38.028Z,97392.63
2023-03-12T19:27:05.664Z,97394.70
2023-03-12T19:29:33.305Z,97398.65
2023-03-12T19:32:00.338Z,97403.25
2023-03-12T19:34:27.404Z,97398.60
2023-03-12T19:36:55.046Z,97397.02
2023-03-12T19:39:22.263Z,97392.54
2023-03-12T19:41:51.321Z,97389.91
2023-03-12T19:44:19.013Z,97392.39
2023-03-12T19:46:46.001Z,97386.64
2023-03-12T19:49:13.946Z,97385.64
2023-03-12T19:51:41.845Z,97381.92
2023-03-12T19:54:09.525Z,97376.90
2023-03-12T19:56:36.784Z,97375.49
2023-03-12T19:59:04.557Z,97378.42
2023-03-12T20:01:31.484Z,97378.29
2023-03-12T20:03:58.840Z,97379.41
2023-03-12T20:06:26.672Z,97379.96
2023-03-12T20:08:53.853Z,97378.59
2023-03-12T20:11:20.999Z,97381.11
2023-03-12T20:13:48.539Z,97383.16
2023-03-12T20:16:17.260Z,97382.39
2023-03-12T20:18:45.808Z,97379.69
2023-03-12T20:21:13.541Z,97372.97
2023-03-12T20:23:40.838Z,97371.77
2023-03-12T20:26:08.699Z,97364.89
2023-03-12T20:28:36.070Z,97361.13
2023-03-12T20:31:15.110Z,97354.31
2023-03-12T20:33:42.805Z,97348.21
2023-03-12T20:36:13.737Z,97344.67
2023-03-12T20:38:41.433Z,97339.74
2023-03-12T20:41:15.877Z,97332.89
2023-03-12T20:43:43.972Z,97333.95
2023-03-12T20:46:12.298Z,97337.66
2023-03-12T20:48:39.762Z,97328.30
2023-03-12T20:51:06.991Z,97324.54
2023-03-12T20:53:34.063Z,97313.58
2023-03-12T20:56:01.732Z,97307.91
2023-03-12T20:58:28.827Z,97313.25
2023-03-12T21:00:56.549Z,97314.83
2023-03-12T21:03:24.842Z,97313.06
2023-03-12T21:05:57.372Z,97313.20
2023-03-12T21:08:26.376Z,97312.73
2023-03-12T21:10:53.528Z,97307.70
2023-03-12T21:13:23.904Z,97305.73
2023-03-12T21:15:51.360Z,97296.20
2023-03-12T21:18:19.258Z,97291.68
2023-03-12T21:20:46.427Z,97290.89
2023-03-12T21:23:13.853Z,97292.86
2023-03-12T21:25:42.232Z,97285.65
2023-03-12T21:28:12.324Z,97281.32
2023-03-12T21:30:39.936Z,97284.61
2023-03-12T21:33:07.861Z,97281.89
2023-03-12T21:35:35.332Z,97276.66
2023-03-12T21:38:03.146Z,97273.61
2023-03-12T21:40:30.263Z,97278.67
2023-03-12T21:42:58.360Z,97280.51
2023-03-12T21:45:27.833Z,97277.02
2023-03-12T21:47:54.989Z,97276.75
2023-03-12T21:50:22.578Z,97274.86
2023-03-12T21:52:51.122Z,97268.80
2023-03-12T21:55:19.454Z,97269.20
2023-03-12T21:57:46.673Z,97264.62
2023-03-12T22:00:17.312Z,97260.36
2023-03-12T22:02:46.332Z,97258.54
2023-03-12T22:05:14.528Z,97263.29
2023-03-12T22:07:42.308Z,97271.61
2023-03-12T22:10:12.249Z,97264.06
2023-03-12T22:12:40.692Z,97257.70
2023-03-12T22:15:10.042Z,97253.72
2023-03-12T22:17:37.429Z,97257.08
2023-03-12T22:20:06.340Z,97259.05
2023-03-12T22:22:36.548Z,97253.07
2023-03-12T22:25:03.893Z,97256.82
2023-03-12T22:27:31.330Z,97250.99
2023-03-12T22:30:02.519Z,97250.42
2023-03-12T22:32:29.646Z,97255.44
2023-03-12T22:35:28.582Z,97253.72
2023-03-12T22:39:00.286Z,97256.45
2023-03-12T22:47:03.220Z,97267.15
2023-03-12T22:50:30.749Z,97267.16
2023-03-12T22:53:58.049Z,97264.45
2023-03-12T22:57:44.675Z,97265.59
2023-03-12T23:01:32.513Z,97253.20
2023-03-12T23:05:18.551Z,97259.32
2023-03-12T23:09:05.532Z,97270.15
2023-03-12T23:12:51.897Z,97270.13
2023-03-12T23:16:31.485Z,97269.84
2023-03-12T23:20:07.065Z,97264.98
2023-03-12T23:23:56.800Z,97265.39
2023-03-12T23:27:23.472Z,97263.02
2023-03-12T23:31:12.830Z,97263.77
2023-03-12T23:35:00.474Z,97257.48
2023-03-12T23:38:50.775Z,97256.04
2023-03-12T23:42:37.070Z,97257.65
2023-03-12T23:46:23.890Z,97263.88
2023-03-12T23:50:10.629Z,97266.05
2023-03-12T23:53:57.691Z,97261.49
2023-03-12T23:57:44.313Z,97262.13
